Garden City, South Carolina
Current Conditions -  °F | °C
As of 5:15 AM on Saturday 20 Dec 2014 (Local Time) from KMYR Reporting Station
Overcast Overcast  
Wind Chill: 44°   Ceiling: 11000
Heat Index: 46°   Visibility: 10mi
Dew Point: 43°   Wind: 5mph
Humidity: 87%   Direction: 30°NNE
Pressure: 30.18"   Gusts: NA
Location:  33.5501°N, 79.0592°W
Report Text: KMYR 201015Z AUTO 03004KT 10SM SCT080 OVC110 08/06 A3018 RMK AO1 P0001
Loading
Personal Weather Stations






























Interactive Weather Map New forecast layout! Learn more

10-Day Weather Forecast

Advertisements
Track Severe Weather on mobile